sensor_id;sensor_type;location;lat;lon;timestamp;P1;durP1;ratioP1;P2;durP2;ratioP2
21663;SDS011;10993;52.510;13.456;2024-01-15T00:03:40;14.20;;;7.03;;
21663;SDS011;10993;52.510;13.456;2024-01-15T00:08:41;13.03;;;7.37;;
21663;SDS011;10993;52.510;13.456;2024-01-15T00:13:41;12.83;;;7.03;;
21663;SDS011;10993;52.510;13.456;2024-01-15T00:18:43;15.97;;;7.73;;
21663;SDS011;10993;52.510;13.456;2024-01-15T00:23:43;11.43;;;6.50;;
21663;SDS011;10993;52.510;13.456;2024-01-15T00:28:46;13.33;;;7.23;;
21663;SDS011;10993;52.510;13.456;2024-01-15T00:33:48;13.93;;;7.33;;
21663;SDS011;10993;52.510;13.456;2024-01-15T00:38:48;15.83;;;7.13;;
21663;SDS011;10993;52.510;13.456;2024-01-15T00:43:49;13.83;;;6.93;;
21663;SDS011;10993;52.510;13.456;2024-01-15T00:48:50;13.57;;;6.77;;
21663;SDS011;10993;52.510;13.456;2024-01-15T00:53:51;14.23;;;6.50;;
21663;SDS011;10993;52.510;13.456;2024-01-15T00:58:51;12.33;;;6.60;;
21663;SDS011;10993;52.510;13.456;2024-01-15T01:03:53;14.63;;;7.13;;
21663;SDS011;10993;52.510;13.456;2024-01-15T01:08:53;11.40;;;6.07;;
21663;SDS011;10993;52.510;13.456;2024-01-15T01:13:53;12.57;;;6.53;;
21663;SDS011;10993;52.510;13.456;2024-01-15T01:18:55;12.03;;;6.40;;
21663;SDS011;10993;52.510;13.456;2024-01-15T01:23:55;11.47;;;6.00;;
21663;SDS011;10993;52.510;13.456;2024-01-15T01:28:56;13.67;;;6.73;;
21663;SDS011;10993;52.510;13.456;2024-01-15T01:33:58;12.17;;;6.23;;
21663;SDS011;10993;52.510;13.456;2024-01-15T01:38:58;13.43;;;6.07;;
21663;SDS011;10993;52.510;13.456;2024-01-15T01:43:58;13.43;;;6.87;;
21663;SDS011;10993;52.510;13.456;2024-01-15T01:49:00;13.27;;;6.63;;
21663;SDS011;10993;52.510;13.456;2024-01-15T01:54:05;11.67;;;6.17;;
21663;SDS011;10993;52.510;13.456;2024-01-15T01:59:07;15.00;;;6.23;;
21663;SDS011;10993;52.510;13.456;2024-01-15T02:04:12;16.00;;;6.93;;
21663;SDS011;10993;52.510;13.456;2024-01-15T02:09:12;16.73;;;6.90;;
21663;SDS011;10993;52.510;13.456;2024-01-15T02:14:15;15.30;;;6.67;;
21663;SDS011;10993;52.510;13.456;2024-01-15T02:19:17;18.73;;;7.27;;
21663;SDS011;10993;52.510;13.456;2024-01-15T02:24:19;15.40;;;6.50;;
21663;SDS011;10993;52.510;13.456;2024-01-15T02:29:19;15.20;;;6.27;;
21663;SDS011;10993;52.510;13.456;2024-01-15T02:34:20;11.23;;;5.63;;
21663;SDS011;10993;52.510;13.456;2024-01-15T02:39:21;12.67;;;5.60;;
21663;SDS011;10993;52.510;13.456;2024-01-15T02:44:22;12.17;;;5.70;;
21663;SDS011;10993;52.510;13.456;2024-01-15T02:49:22;11.83;;;5.40;;
21663;SDS011;10993;52.510;13.456;2024-01-15T02:54:24;11.57;;;4.90;;
21663;SDS011;10993;52.510;13.456;2024-01-15T02:59:24;11.73;;;5.33;;
21663;SDS011;10993;52.510;13.456;2024-01-15T03:04:24;12.30;;;5.37;;
21663;SDS011;10993;52.510;13.456;2024-01-15T03:09:26;10.67;;;5.33;;
21663;SDS011;10993;52.510;13.456;2024-01-15T03:14:26;10.57;;;4.93;;
21663;SDS011;10993;52.510;13.456;2024-01-15T03:19:27;12.63;;;5.10;;
21663;SDS011;10993;52.510;13.456;2024-01-15T03:24:28;13.47;;;4.80;;
21663;SDS011;10993;52.510;13.456;2024-01-15T03:29:29;10.63;;;5.27;;
21663;SDS011;10993;52.510;13.456;2024-01-15T03:34:29;10.60;;;4.87;;
21663;SDS011;10993;52.510;13.456;2024-01-15T03:39:31;16.30;;;5.43;;
21663;SDS011;10993;52.510;13.456;2024-01-15T03:44:31;12.40;;;5.60;;
21663;SDS011;10993;52.510;13.456;2024-01-15T03:49:31;9.90;;;4.87;;
21663;SDS011;10993;52.510;13.456;2024-01-15T03:54:33;11.87;;;4.73;;
21663;SDS011;10993;52.510;13.456;2024-01-15T03:59:33;13.90;;;5.10;;
21663;SDS011;10993;52.510;13.456;2024-01-15T04:04:33;7.87;;;3.87;;
21663;SDS011;10993;52.510;13.456;2024-01-15T04:09:35;12.57;;;4.80;;
21663;SDS011;10993;52.510;13.456;2024-01-15T04:14:35;10.70;;;3.73;;
21663;SDS011;10993;52.510;13.456;2024-01-15T04:19:36;8.80;;;3.93;;
21663;SDS011;10993;52.510;13.456;2024-01-15T04:24:37;10.83;;;3.73;;
21663;SDS011;10993;52.510;13.456;2024-01-15T04:29:38;11.40;;;3.83;;
21663;SDS011;10993;52.510;13.456;2024-01-15T04:34:39;9.33;;;4.27;;
21663;SDS011;10993;52.510;13.456;2024-01-15T04:39:40;12.47;;;3.43;;
21663;SDS011;10993;52.510;13.456;2024-01-15T04:44:40;9.13;;;3.33;;
21663;SDS011;10993;52.510;13.456;2024-01-15T04:49:41;7.57;;;3.37;;
21663;SDS011;10993;52.510;13.456;2024-01-15T04:54:42;10.10;;;3.27;;
21663;SDS011;10993;52.510;13.456;2024-01-15T04:59:43;7.63;;;2.60;;
21663;SDS011;10993;52.510;13.456;2024-01-15T05:04:43;5.97;;;2.43;;
21663;SDS011;10993;52.510;13.456;2024-01-15T05:09:45;7.10;;;2.50;;
21663;SDS011;10993;52.510;13.456;2024-01-15T05:14:45;7.17;;;2.30;;
21663;SDS011;10993;52.510;13.456;2024-01-15T05:19:45;9.37;;;2.30;;
21663;SDS011;10993;52.510;13.456;2024-01-15T05:24:47;9.27;;;1.87;;
21663;SDS011;10993;52.510;13.456;2024-01-15T05:29:48;8.60;;;2.20;;
21663;SDS011;10993;52.510;13.456;2024-01-15T05:34:48;7.93;;;2.53;;
21663;SDS011;10993;52.510;13.456;2024-01-15T05:39:49;7.47;;;2.07;;
21663;SDS011;10993;52.510;13.456;2024-01-15T05:44:50;3.57;;;1.73;;
21663;SDS011;10993;52.510;13.456;2024-01-15T05:49:50;5.10;;;1.73;;
21663;SDS011;10993;52.510;13.456;2024-01-15T05:54:52;4.33;;;1.97;;
21663;SDS011;10993;52.510;13.456;2024-01-15T05:59:52;8.23;;;1.97;;
21663;SDS011;10993;52.510;13.456;2024-01-15T06:04:52;7.40;;;1.80;;
21663;SDS011;10993;52.510;13.456;2024-01-15T06:09:54;5.03;;;1.77;;
21663;SDS011;10993;52.510;13.456;2024-01-15T06:14:56;5.50;;;1.90;;
21663;SDS011;10993;52.510;13.456;2024-01-15T06:19:57;7.63;;;1.73;;
21663;SDS011;10993;52.510;13.456;2024-01-15T06:24:59;3.90;;;1.47;;
21663;SDS011;10993;52.510;13.456;2024-01-15T06:29:59;5.97;;;1.37;;
21663;SDS011;10993;52.510;13.456;2024-01-15T06:34:59;8.30;;;1.97;;
21663;SDS011;10993;52.510;13.456;2024-01-15T06:40:01;4.20;;;1.53;;
21663;SDS011;10993;52.510;13.456;2024-01-15T06:45:01;5.53;;;1.13;;
21663;SDS011;10993;52.510;13.456;2024-01-15T06:50:02;4.87;;;1.40;;
21663;SDS011;10993;52.510;13.456;2024-01-15T06:55:06;10.07;;;1.70;;
21663;SDS011;10993;52.510;13.456;2024-01-15T07:00:07;7.67;;;1.60;;
21663;SDS011;10993;52.510;13.456;2024-01-15T07:05:08;8.63;;;1.63;;
21663;SDS011;10993;52.510;13.456;2024-01-15T07:10:10;6.87;;;1.17;;
21663;SDS011;10993;52.510;13.456;2024-01-15T07:15:10;5.63;;;1.20;;
21663;SDS011;10993;52.510;13.456;2024-01-15T07:20:11;9.27;;;1.40;;
21663;SDS011;10993;52.510;13.456;2024-01-15T07:25:12;12.47;;;2.30;;
21663;SDS011;10993;52.510;13.456;2024-01-15T07:30:13;5.53;;;1.43;;
21663;SDS011;10993;52.510;13.456;2024-01-15T07:35:14;7.60;;;1.50;;
21663;SDS011;10993;52.510;13.456;2024-01-15T07:40:16;7.57;;;1.17;;
21663;SDS011;10993;52.510;13.456;2024-01-15T07:45:16;5.23;;;1.13;;
21663;SDS011;10993;52.510;13.456;2024-01-15T07:50:17;5.93;;;1.30;;
21663;SDS011;10993;52.510;13.456;2024-01-15T07:55:18;5.77;;;1.43;;
21663;SDS011;10993;52.510;13.456;2024-01-15T08:00:19;7.40;;;1.80;;
21663;SDS011;10993;52.510;13.456;2024-01-15T08:05:19;7.13;;;1.17;;
21663;SDS011;10993;52.510;13.456;2024-01-15T08:10:22;15.83;;;1.47;;
21663;SDS011;10993;52.510;13.456;2024-01-15T08:15:22;5.30;;;1.23;;
21663;SDS011;10993;52.510;13.456;2024-01-15T08:20:22;10.47;;;1.67;;
21663;SDS011;10993;52.510;13.456;2024-01-15T08:25:24;8.40;;;2.00;;
21663;SDS011;10993;52.510;13.456;2024-01-15T08:30:26;9.17;;;2.10;;
21663;SDS011;10993;52.510;13.456;2024-01-15T08:35:27;6.57;;;1.63;;
21663;SDS011;10993;52.510;13.456;2024-01-15T08:40:29;5.53;;;1.23;;
21663;SDS011;10993;52.510;13.456;2024-01-15T08:45:29;3.87;;;1.00;;
21663;SDS011;10993;52.510;13.456;2024-01-15T08:50:30;7.33;;;1.70;;
21663;SDS011;10993;52.510;13.456;2024-01-15T08:55:33;3.80;;;1.20;;
21663;SDS011;10993;52.510;13.456;2024-01-15T09:00:33;7.90;;;1.03;;
21663;SDS011;10993;52.510;13.456;2024-01-15T09:05:34;9.97;;;1.60;;
21663;SDS011;10993;52.510;13.456;2024-01-15T09:10:36;6.90;;;1.53;;
21663;SDS011;10993;52.510;13.456;2024-01-15T09:15:36;8.00;;;1.67;;
21663;SDS011;10993;52.510;13.456;2024-01-15T09:20:36;6.43;;;1.67;;
21663;SDS011;10993;52.510;13.456;2024-01-15T09:25:39;8.30;;;1.70;;
21663;SDS011;10993;52.510;13.456;2024-01-15T09:30:40;9.87;;;1.50;;
21663;SDS011;10993;52.510;13.456;2024-01-15T09:35:40;4.27;;;1.40;;
21663;SDS011;10993;52.510;13.456;2024-01-15T09:40:42;13.53;;;2.00;;
21663;SDS011;10993;52.510;13.456;2024-01-15T09:45:45;5.07;;;1.40;;
21663;SDS011;10993;52.510;13.456;2024-01-15T09:50:46;6.23;;;1.30;;
21663;SDS011;10993;52.510;13.456;2024-01-15T09:55:48;7.47;;;1.77;;
21663;SDS011;10993;52.510;13.456;2024-01-15T10:00:50;3.43;;;1.00;;
21663;SDS011;10993;52.510;13.456;2024-01-15T10:05:51;6.03;;;1.00;;
21663;SDS011;10993;52.510;13.456;2024-01-15T10:10:53;4.37;;;1.20;;
21663;SDS011;10993;52.510;13.456;2024-01-15T10:15:53;3.57;;;1.17;;
21663;SDS011;10993;52.510;13.456;2024-01-15T10:20:54;4.17;;;0.90;;
21663;SDS011;10993;52.510;13.456;2024-01-15T10:25:56;7.83;;;2.00;;
21663;SDS011;10993;52.510;13.456;2024-01-15T10:30:57;3.13;;;1.33;;
21663;SDS011;10993;52.510;13.456;2024-01-15T10:36:01;4.27;;;1.47;;
21663;SDS011;10993;52.510;13.456;2024-01-15T10:41:02;4.90;;;1.10;;
21663;SDS011;10993;52.510;13.456;2024-01-15T10:46:04;4.87;;;1.00;;
21663;SDS011;10993;52.510;13.456;2024-01-15T10:51:04;9.10;;;1.50;;
21663;SDS011;10993;52.510;13.456;2024-01-15T10:56:11;8.47;;;2.20;;
21663;SDS011;10993;52.510;13.456;2024-01-15T11:01:13;8.52;;;1.27;;
21663;SDS011;10993;52.510;13.456;2024-01-15T11:06:17;3.65;;;1.15;;
21663;SDS011;10993;52.510;13.456;2024-01-15T11:11:21;5.18;;;1.45;;
21663;SDS011;10993;52.510;13.456;2024-01-15T11:16:23;2.90;;;0.90;;
21663;SDS011;10993;52.510;13.456;2024-01-15T11:21:23;4.65;;;1.15;;
21663;SDS011;10993;52.510;13.456;2024-01-15T11:26:32;3.95;;;1.00;;
21663;SDS011;10993;52.510;13.456;2024-01-15T11:37:01;4.97;;;1.00;;
21663;SDS011;10993;52.510;13.456;2024-01-15T11:42:04;2.00;;;0.80;;
21663;SDS011;10993;52.510;13.456;2024-01-15T11:47:05;2.35;;;0.82;;
21663;SDS011;10993;52.510;13.456;2024-01-15T11:52:06;2.07;;;0.77;;
21663;SDS011;10993;52.510;13.456;2024-01-15T11:57:09;2.33;;;1.13;;
21663;SDS011;10993;52.510;13.456;2024-01-15T12:02:17;1.60;;;0.90;;
21663;SDS011;10993;52.510;13.456;2024-01-15T12:07:17;2.23;;;1.17;;
21663;SDS011;10993;52.510;13.456;2024-01-15T12:12:20;3.53;;;1.47;;
21663;SDS011;10993;52.510;13.456;2024-01-15T12:17:28;2.97;;;1.07;;
21663;SDS011;10993;52.510;13.456;2024-01-15T12:22:28;5.53;;;1.23;;
21663;SDS011;10993;52.510;13.456;2024-01-15T12:27:30;3.03;;;1.10;;
21663;SDS011;10993;52.510;13.456;2024-01-15T12:32:31;2.40;;;1.10;;
21663;SDS011;10993;52.510;13.456;2024-01-15T12:37:31;4.53;;;0.90;;
21663;SDS011;10993;52.510;13.456;2024-01-15T12:42:32;4.07;;;1.60;;
21663;SDS011;10993;52.510;13.456;2024-01-15T12:47:33;2.30;;;1.17;;
21663;SDS011;10993;52.510;13.456;2024-01-15T12:52:34;3.60;;;1.20;;
21663;SDS011;10993;52.510;13.456;2024-01-15T12:57:36;5.27;;;1.20;;
21663;SDS011;10993;52.510;13.456;2024-01-15T13:02:36;3.37;;;1.10;;
21663;SDS011;10993;52.510;13.456;2024-01-15T13:07:37;2.70;;;1.50;;
21663;SDS011;10993;52.510;13.456;2024-01-15T13:12:39;2.27;;;1.27;;
21663;SDS011;10993;52.510;13.456;2024-01-15T13:17:40;3.67;;;1.13;;
21663;SDS011;10993;52.510;13.456;2024-01-15T13:22:41;7.63;;;1.37;;
21663;SDS011;10993;52.510;13.456;2024-01-15T13:27:45;2.30;;;1.00;;
21663;SDS011;10993;52.510;13.456;2024-01-15T13:32:45;3.13;;;1.40;;
21663;SDS011;10993;52.510;13.456;2024-01-15T13:37:46;3.80;;;1.60;;
21663;SDS011;10993;52.510;13.456;2024-01-15T13:42:48;4.40;;;1.30;;
21663;SDS011;10993;52.510;13.456;2024-01-15T13:47:48;2.77;;;1.37;;
21663;SDS011;10993;52.510;13.456;2024-01-15T13:52:49;5.30;;;1.40;;
21663;SDS011;10993;52.510;13.456;2024-01-15T13:57:50;2.23;;;1.10;;
21663;SDS011;10993;52.510;13.456;2024-01-15T14:02:51;2.73;;;1.10;;
21663;SDS011;10993;52.510;13.456;2024-01-15T14:07:51;20.35;;;8.27;;
21663;SDS011;10993;52.510;13.456;2024-01-15T14:12:53;6.97;;;2.73;;
21663;SDS011;10993;52.510;13.456;2024-01-15T14:17:53;6.33;;;1.63;;
21663;SDS011;10993;52.510;13.456;2024-01-15T14:22:53;7.67;;;1.73;;
21663;SDS011;10993;52.510;13.456;2024-01-15T14:27:55;7.20;;;2.13;;
21663;SDS011;10993;52.510;13.456;2024-01-15T14:32:55;6.40;;;1.80;;
21663;SDS011;10993;52.510;13.456;2024-01-15T14:37:56;5.33;;;1.90;;
21663;SDS011;10993;52.510;13.456;2024-01-15T14:42:59;4.13;;;1.67;;
21663;SDS011;10993;52.510;13.456;2024-01-15T14:48:00;3.77;;;1.13;;
21663;SDS011;10993;52.510;13.456;2024-01-15T14:53:00;4.47;;;1.50;;
21663;SDS011;10993;52.510;13.456;2024-01-15T14:58:01;5.83;;;2.10;;
21663;SDS011;10993;52.510;13.456;2024-01-15T15:03:02;5.60;;;1.70;;
21663;SDS011;10993;52.510;13.456;2024-01-15T15:08:03;6.60;;;2.27;;
21663;SDS011;10993;52.510;13.456;2024-01-15T15:13:09;8.67;;;2.67;;
21663;SDS011;10993;52.510;13.456;2024-01-15T15:18:10;3.97;;;1.37;;
21663;SDS011;10993;52.510;13.456;2024-01-15T15:23:10;8.83;;;2.13;;
21663;SDS011;10993;52.510;13.456;2024-01-15T15:28:12;3.60;;;1.57;;
21663;SDS011;10993;52.510;13.456;2024-01-15T15:33:14;6.53;;;1.60;;
21663;SDS011;10993;52.510;13.456;2024-01-15T15:38:15;3.43;;;1.47;;
21663;SDS011;10993;52.510;13.456;2024-01-15T15:43:17;6.13;;;1.63;;
21663;SDS011;10993;52.510;13.456;2024-01-15T15:48:18;5.07;;;1.73;;
21663;SDS011;10993;52.510;13.456;2024-01-15T15:53:19;7.17;;;1.80;;
21663;SDS011;10993;52.510;13.456;2024-01-15T15:58:21;6.37;;;2.10;;
21663;SDS011;10993;52.510;13.456;2024-01-15T16:03:21;10.77;;;2.80;;
21663;SDS011;10993;52.510;13.456;2024-01-15T16:08:22;6.10;;;1.60;;
21663;SDS011;10993;52.510;13.456;2024-01-15T16:13:23;6.43;;;2.53;;
21663;SDS011;10993;52.510;13.456;2024-01-15T16:18:23;5.20;;;1.67;;
21663;SDS011;10993;52.510;13.456;2024-01-15T16:23:24;5.77;;;2.20;;
21663;SDS011;10993;52.510;13.456;2024-01-15T16:28:25;4.07;;;2.00;;
21663;SDS011;10993;52.510;13.456;2024-01-15T16:33:26;3.47;;;1.53;;
21663;SDS011;10993;52.510;13.456;2024-01-15T16:38:27;4.57;;;1.93;;
21663;SDS011;10993;52.510;13.456;2024-01-15T16:43:29;7.50;;;1.97;;
21663;SDS011;10993;52.510;13.456;2024-01-15T16:48:29;5.57;;;2.00;;
21663;SDS011;10993;52.510;13.456;2024-01-15T16:53:30;4.77;;;1.60;;
21663;SDS011;10993;52.510;13.456;2024-01-15T16:58:31;6.83;;;2.70;;
21663;SDS011;10993;52.510;13.456;2024-01-15T17:03:32;5.13;;;2.20;;
21663;SDS011;10993;52.510;13.456;2024-01-15T17:08:32;4.83;;;2.13;;
21663;SDS011;10993;52.510;13.456;2024-01-15T17:13:34;6.20;;;2.87;;
21663;SDS011;10993;52.510;13.456;2024-01-15T17:18:34;6.60;;;2.43;;
21663;SDS011;10993;52.510;13.456;2024-01-15T17:23:34;6.97;;;3.20;;
21663;SDS011;10993;52.510;13.456;2024-01-15T17:28:36;8.60;;;3.33;;
21663;SDS011;10993;52.510;13.456;2024-01-15T17:33:36;8.43;;;4.00;;
21663;SDS011;10993;52.510;13.456;2024-01-15T17:38:37;7.80;;;3.93;;
21663;SDS011;10993;52.510;13.456;2024-01-15T17:43:38;5.97;;;2.67;;
21663;SDS011;10993;52.510;13.456;2024-01-15T17:48:39;5.93;;;3.37;;
21663;SDS011;10993;52.510;13.456;2024-01-15T17:53:39;4.90;;;2.53;;
21663;SDS011;10993;52.510;13.456;2024-01-15T17:58:40;4.93;;;2.43;;
21663;SDS011;10993;52.510;13.456;2024-01-15T18:03:43;6.00;;;2.50;;
21663;SDS011;10993;52.510;13.456;2024-01-15T18:08:43;5.07;;;2.43;;
21663;SDS011;10993;52.510;13.456;2024-01-15T18:13:45;4.63;;;2.53;;
21663;SDS011;10993;52.510;13.456;2024-01-15T18:18:46;4.77;;;2.47;;
21663;SDS011;10993;52.510;13.456;2024-01-15T18:23:46;4.43;;;2.27;;
21663;SDS011;10993;52.510;13.456;2024-01-15T18:28:48;5.73;;;2.77;;
21663;SDS011;10993;52.510;13.456;2024-01-15T18:33:48;6.43;;;2.40;;
21663;SDS011;10993;52.510;13.456;2024-01-15T18:38:49;7.97;;;2.67;;
21663;SDS011;10993;52.510;13.456;2024-01-15T18:43:50;7.43;;;1.90;;
21663;SDS011;10993;52.510;13.456;2024-01-15T18:48:51;6.77;;;2.50;;
21663;SDS011;10993;52.510;13.456;2024-01-15T18:53:53;8.63;;;2.40;;
21663;SDS011;10993;52.510;13.456;2024-01-15T18:58:55;8.23;;;2.00;;
21663;SDS011;10993;52.510;13.456;2024-01-15T19:03:56;7.43;;;1.77;;
21663;SDS011;10993;52.510;13.456;2024-01-15T19:08:56;8.87;;;1.67;;
21663;SDS011;10993;52.510;13.456;2024-01-15T19:13:58;6.00;;;1.53;;
21663;SDS011;10993;52.510;13.456;2024-01-15T19:18:59;6.13;;;1.67;;
21663;SDS011;10993;52.510;13.456;2024-01-15T19:23:59;4.87;;;1.60;;
21663;SDS011;10993;52.510;13.456;2024-01-15T19:29:01;9.00;;;1.83;;
21663;SDS011;10993;52.510;13.456;2024-01-15T19:34:02;6.10;;;1.90;;
21663;SDS011;10993;52.510;13.456;2024-01-15T19:39:04;3.97;;;1.80;;
21663;SDS011;10993;52.510;13.456;2024-01-15T20:26:17;4.77;;;2.13;;
21663;SDS011;10993;52.510;13.456;2024-01-15T20:32:01;6.83;;;2.07;;
21663;SDS011;10993;52.510;13.456;2024-01-15T20:56:10;4.83;;;1.57;;
21663;SDS011;10993;52.510;13.456;2024-01-15T21:01:30;5.33;;;1.70;;
21663;SDS011;10993;52.510;13.456;2024-01-15T21:07:21;6.63;;;1.53;;
21663;SDS011;10993;52.510;13.456;2024-01-15T21:13:22;6.50;;;1.57;;
21663;SDS011;10993;52.510;13.456;2024-01-15T21:18:35;5.20;;;1.57;;
21663;SDS011;10993;52.510;13.456;2024-01-15T21:23:45;6.77;;;2.37;;
21663;SDS011;10993;52.510;13.456;2024-01-15T21:29:08;5.00;;;1.70;;
21663;SDS011;10993;52.510;13.456;2024-01-15T21:34:20;4.60;;;1.43;;
21663;SDS011;10993;52.510;13.456;2024-01-15T21:39:30;7.10;;;1.57;;
21663;SDS011;10993;52.510;13.456;2024-01-15T21:44:48;3.83;;;1.60;;
21663;SDS011;10993;52.510;13.456;2024-01-15T21:49:59;6.40;;;1.80;;
21663;SDS011;10993;52.510;13.456;2024-01-15T21:55:02;8.67;;;1.90;;
21663;SDS011;10993;52.510;13.456;2024-01-15T22:00:08;4.87;;;1.17;;
21663;SDS011;10993;52.510;13.456;2024-01-15T22:05:15;5.30;;;1.30;;
21663;SDS011;10993;52.510;13.456;2024-01-15T22:10:19;2.50;;;1.13;;
21663;SDS011;10993;52.510;13.456;2024-01-15T22:15:22;3.10;;;1.20;;
21663;SDS011;10993;52.510;13.456;2024-01-15T22:20:23;5.13;;;1.83;;
21663;SDS011;10993;52.510;13.456;2024-01-15T22:25:23;6.37;;;1.40;;
21663;SDS011;10993;52.510;13.456;2024-01-15T22:30:24;5.07;;;1.90;;
21663;SDS011;10993;52.510;13.456;2024-01-15T22:35:25;5.80;;;1.60;;
21663;SDS011;10993;52.510;13.456;2024-01-15T22:40:25;5.43;;;1.50;;
21663;SDS011;10993;52.510;13.456;2024-01-15T22:45:27;5.70;;;1.80;;
21663;SDS011;10993;52.510;13.456;2024-01-15T22:50:27;5.27;;;1.40;;
21663;SDS011;10993;52.510;13.456;2024-01-15T22:55:27;3.83;;;1.33;;
21663;SDS011;10993;52.510;13.456;2024-01-15T23:00:29;3.63;;;1.17;;
21663;SDS011;10993;52.510;13.456;2024-01-15T23:05:29;5.63;;;2.10;;
21663;SDS011;10993;52.510;13.456;2024-01-15T23:10:30;8.00;;;1.35;;
21663;SDS011;10993;52.510;13.456;2024-01-15T23:15:31;6.53;;;1.63;;
21663;SDS011;10993;52.510;13.456;2024-01-15T23:20:32;3.53;;;1.33;;
21663;SDS011;10993;52.510;13.456;2024-01-15T23:25:32;2.93;;;1.20;;
21663;SDS011;10993;52.510;13.456;2024-01-15T23:30:33;5.20;;;1.30;;
21663;SDS011;10993;52.510;13.456;2024-01-15T23:35:34;5.03;;;1.27;;
21663;SDS011;10993;52.510;13.456;2024-01-15T23:40:34;6.80;;;1.70;;
21663;SDS011;10993;52.510;13.456;2024-01-15T23:45:36;5.80;;;1.50;;
21663;SDS011;10993;52.510;13.456;2024-01-15T23:50:36;4.77;;;1.33;;
21663;SDS011;10993;52.510;13.456;2024-01-15T23:55:36;3.53;;;1.10;;
